createdAt,value
2018-08-10T00:01:10.377Z,6.73
2018-08-10T00:03:38.064Z,9.10
2018-08-10T00:06:05.852Z,8.03
2018-08-10T00:08:33.461Z,8.30
2018-08-10T00:11:01.153Z,6.40
2018-08-10T00:13:28.800Z,6.00
2018-08-10T00:15:56.483Z,6.60
2018-08-10T00:18:24.158Z,4.23
2018-08-10T00:20:51.877Z,4.53
2018-08-10T00:23:19.558Z,4.27
2018-08-10T00:25:47.246Z,4.53
2018-08-10T00:28:14.902Z,4.40
2018-08-10T00:30:42.638Z,3.50
2018-08-10T00:33:10.298Z,4.33
2018-08-10T00:35:37.926Z,3.10
2018-08-10T00:38:05.614Z,3.73
2018-08-10T00:40:33.312Z,3.30
2018-08-10T00:43:01.015Z,1.77
2018-08-10T00:45:28.701Z,4.37
2018-08-10T00:47:56.341Z,2.80
2018-08-10T00:50:24.026Z,3.20
2018-08-10T00:52:51.726Z,3.23
2018-08-10T00:55:20.042Z,3.53
2018-08-10T00:57:48.341Z,2.77
2018-08-10T01:00:18.566Z,2.73
2018-08-10T01:02:46.184Z,3.33
2018-08-10T01:05:13.910Z,3.57
2018-08-10T01:07:41.626Z,3.00
2018-08-10T01:10:11.934Z,3.40
2018-08-10T01:12:40.276Z,2.77
2018-08-10T01:15:08.632Z,4.97
2018-08-10T01:17:36.351Z,4.23
2018-08-10T01:20:05.390Z,4.43
2018-08-10T01:22:36.293Z,4.50
2018-08-10T01:25:03.978Z,4.80
2018-08-10T01:27:36.965Z,4.60
2018-08-10T01:30:05.014Z,4.67
2018-08-10T01:32:32.674Z,4.17
2018-08-10T01:35:00.294Z,3.70
2018-08-10T01:37:27.963Z,4.50
2018-08-10T01:39:55.765Z,3.00
2018-08-10T01:42:23.774Z,2.67
2018-08-10T01:44:52.394Z,2.27
2018-08-10T01:47:21.946Z,2.07
2018-08-10T01:49:51.011Z,2.00
2018-08-10T01:52:18.677Z,1.60
2018-08-10T01:54:46.310Z,1.13
2018-08-10T01:57:13.946Z,1.70
2018-08-10T01:59:41.566Z,1.20
2018-08-10T02:02:09.266Z,0.60
2018-08-10T02:04:36.881Z,1.20
2018-08-10T02:07:04.618Z,1.20
2018-08-10T02:09:32.235Z,1.17
2018-08-10T02:11:59.895Z,1.20
2018-08-10T02:14:27.757Z,1.03
2018-08-10T02:16:56.263Z,1.20
2018-08-10T02:19:24.246Z,0.87
2018-08-10T02:21:52.207Z,1.03
2018-08-10T02:24:20.119Z,0.30
2018-08-10T02:26:48.574Z,0.73
2018-08-10T02:29:17.806Z,1.00
2018-08-10T02:31:45.775Z,1.03
2018-08-10T02:34:14.049Z,0.90
2018-08-10T02:36:42.638Z,0.93
2018-08-10T02:39:12.858Z,0.90
2018-08-10T02:41:40.618Z,0.87
2018-08-10T02:44:08.863Z,0.93
2018-08-10T02:46:36.763Z,0.80
2018-08-10T02:49:05.299Z,0.80
2018-08-10T02:51:33.271Z,1.03
2018-08-10T02:54:01.261Z,0.83
2018-08-10T02:56:29.183Z,1.33
2018-08-10T02:58:57.010Z,0.67
2018-08-10T03:01:25.213Z,1.10
2018-08-10T03:03:53.182Z,0.90
2018-08-10T03:06:21.105Z,0.90
2018-08-10T03:08:49.094Z,0.87
2018-08-10T03:11:17.249Z,1.00
2018-08-10T03:13:45.174Z,1.10
2018-08-10T03:16:13.214Z,0.97
2018-08-10T03:18:41.893Z,0.93
2018-08-10T03:21:09.801Z,1.10
2018-08-10T03:23:38.427Z,0.90
2018-08-10T03:26:06.340Z,1.10
2018-08-10T03:28:34.432Z,0.73
2018-08-10T03:31:02.998Z,0.87
2018-08-10T03:33:30.960Z,0.93
2018-08-10T03:35:59.163Z,1.20
2018-08-10T03:38:27.803Z,1.30
2018-08-10T03:40:55.714Z,1.20
2018-08-10T03:43:23.657Z,0.80
2018-08-10T03:45:52.731Z,0.90
2018-08-10T03:48:20.626Z,1.33
2018-08-10T03:50:48.544Z,1.10
2018-08-10T03:53:16.518Z,1.10
2018-08-10T03:55:44.580Z,1.30
2018-08-10T03:58:13.849Z,0.87
2018-08-10T04:00:43.377Z,1.23
2018-08-10T04:03:12.378Z,2.07
2018-08-10T04:05:40.171Z,1.50
2018-08-10T04:08:07.786Z,1.20
2018-08-10T04:10:36.702Z,1.77
2018-08-10T04:13:04.614Z,1.30
2018-08-10T04:15:32.652Z,1.63
2018-08-10T04:18:00.618Z,1.80
2018-08-10T04:20:29.569Z,1.67
2018-08-10T04:22:57.460Z,1.60
2018-08-10T04:25:25.477Z,1.90
2018-08-10T04:27:54.069Z,1.63
2018-08-10T04:30:21.911Z,2.10
2018-08-10T04:32:49.565Z,1.90
2018-08-10T04:35:17.145Z,1.93
2018-08-10T04:37:45.586Z,2.23
2018-08-10T04:40:14.736Z,1.90
2018-08-10T04:42:42.576Z,2.50
2018-08-10T04:45:10.928Z,1.73
2018-08-10T04:47:42.946Z,3.40
2018-08-10T04:50:10.813Z,1.67
2018-08-10T04:52:40.509Z,2.90
2018-08-10T04:55:10.595Z,1.60
2018-08-10T04:57:39.326Z,1.77
2018-08-10T05:00:08.434Z,2.60
2018-08-10T05:02:36.773Z,2.97
2018-08-10T05:05:04.945Z,2.30
2018-08-10T05:07:33.073Z,2.13
2018-08-10T05:10:01.073Z,1.80
2018-08-10T05:12:28.869Z,2.03
2018-08-10T05:14:57.890Z,1.40
2018-08-10T05:17:25.883Z,2.40
2018-08-10T05:19:53.818Z,1.63
2018-08-10T05:22:25.269Z,1.70
2018-08-10T05:24:53.130Z,1.70
2018-08-10T05:27:21.733Z,2.10
2018-08-10T05:29:49.358Z,2.30
2018-08-10T05:32:18.406Z,1.80
2018-08-10T05:34:46.267Z,2.27
2018-08-10T05:37:14.150Z,1.40
2018-08-10T05:39:42.480Z,1.03
2018-08-10T05:42:11.419Z,1.30
2018-08-10T05:44:40.200Z,1.67
2018-08-10T05:47:08.820Z,2.20
2018-08-10T05:49:37.128Z,2.23
2018-08-10T05:52:06.492Z,3.10
2018-08-10T05:54:34.362Z,2.10
2018-08-10T05:57:02.299Z,2.03
2018-08-10T05:59:30.612Z,2.17
2018-08-10T06:01:58.243Z,1.37
2018-08-10T06:04:26.262Z,1.93
2018-08-10T06:06:54.225Z,2.10
2018-08-10T06:09:22.189Z,1.67
2018-08-10T06:11:50.775Z,1.77
2018-08-10T06:14:19.680Z,1.70
2018-08-10T06:16:47.701Z,2.27
2018-08-10T06:19:16.234Z,1.73
2018-08-10T06:21:44.132Z,1.73
2018-08-10T06:24:12.493Z,2.23
2018-08-10T06:26:40.532Z,2.00
2018-08-10T06:29:09.030Z,1.17
2018-08-10T06:31:36.936Z,1.50
2018-08-10T06:34:06.501Z,1.87
2018-08-10T06:36:34.423Z,1.53
2018-08-10T06:39:02.475Z,2.47
2018-08-10T06:41:30.429Z,1.60
2018-08-10T06:43:58.765Z,1.70
2018-08-10T06:46:27.305Z,1.90
2018-08-10T06:48:55.829Z,1.43
2018-08-10T06:51:23.842Z,2.20
2018-08-10T06:53:53.302Z,1.50
2018-08-10T06:56:21.400Z,1.27
2018-08-10T06:58:50.591Z,1.40
2018-08-10T07:01:18.473Z,1.60
2018-08-10T07:03:47.302Z,2.13
2018-08-10T07:06:15.138Z,1.77
2018-08-10T07:08:43.089Z,2.20
2018-08-10T07:11:10.976Z,1.43
2018-08-10T07:13:38.821Z,1.93
2018-08-10T07:16:06.571Z,1.67
2018-08-10T07:18:34.152Z,1.70
2018-08-10T07:21:01.783Z,1.43
2018-08-10T07:23:29.461Z,1.80
2018-08-10T07:25:57.146Z,0.93
2018-08-10T07:28:24.701Z,1.03
2018-08-10T07:30:52.322Z,1.87
2018-08-10T07:33:19.901Z,1.40
2018-08-10T07:35:47.475Z,2.30
2018-08-10T07:38:15.122Z,1.03
2018-08-10T07:40:42.733Z,1.23
2018-08-10T07:43:10.354Z,1.13
2018-08-10T07:45:37.924Z,1.20
2018-08-10T07:48:05.525Z,1.60
2018-08-10T07:50:33.233Z,1.37
2018-08-10T07:53:00.794Z,1.40
2018-08-10T07:55:28.626Z,1.60
2018-08-10T07:57:56.503Z,1.30
2018-08-10T08:00:24.193Z,1.40
2018-08-10T08:02:51.783Z,1.03
2018-08-10T08:05:19.315Z,1.20
2018-08-10T08:07:46.939Z,1.53
2018-08-10T08:10:14.458Z,1.70
2018-08-10T08:12:42.087Z,1.83
2018-08-10T08:15:09.822Z,1.60
2018-08-10T08:17:37.417Z,1.10
2018-08-10T08:20:05.632Z,1.13
2018-08-10T08:22:33.314Z,1.70
2018-08-10T08:25:00.963Z,1.60
2018-08-10T08:27:28.676Z,0.90
2018-08-10T08:29:56.203Z,1.77
2018-08-10T08:32:23.830Z,0.77
2018-08-10T08:34:51.603Z,1.43
2018-08-10T08:37:19.117Z,1.47
2018-08-10T08:40:19.597Z,0.70
2018-08-10T08:42:49.019Z,1.10
2018-08-10T08:46:20.118Z,0.57
2018-08-10T08:48:48.767Z,0.70
2018-08-10T08:51:18.992Z,0.80
2018-08-10T08:53:47.181Z,1.03
2018-08-10T08:56:17.831Z,0.87
2018-08-10T08:58:47.046Z,0.87
2018-08-10T09:01:15.409Z,0.90
2018-08-10T09:03:48.423Z,1.20
2018-08-10T09:06:17.133Z,1.40
2018-08-10T09:08:49.298Z,0.70
2018-08-10T09:11:18.155Z,0.83
2018-08-10T09:14:51.159Z,0.83
2018-08-10T09:17:18.925Z,0.70
2018-08-10T09:19:47.469Z,0.60
2018-08-10T09:22:15.533Z,0.60
2018-08-10T09:24:43.542Z,0.60
2018-08-10T09:27:11.646Z,0.90
2018-08-10T09:29:40.008Z,0.73
2018-08-10T09:32:08.601Z,0.77
2018-08-10T09:34:36.520Z,0.60
2018-08-10T09:37:06.029Z,2.77
2018-08-10T09:39:33.983Z,0.77
2018-08-10T09:42:02.949Z,0.80
2018-08-10T09:44:31.304Z,1.67
2018-08-10T09:46:59.394Z,1.10
2018-08-10T09:49:29.226Z,0.60
2018-08-10T09:51:56.913Z,1.30
2018-08-10T09:54:24.539Z,1.00
2018-08-10T09:56:52.218Z,1.03
2018-08-10T09:59:19.884Z,0.60
2018-08-10T10:01:52.866Z,1.00
2018-08-10T10:04:20.502Z,0.87
2018-08-10T10:06:48.124Z,0.70
2018-08-10T10:09:15.729Z,1.30
2018-08-10T10:11:43.345Z,1.30
2018-08-10T10:14:10.882Z,1.40
2018-08-10T10:16:38.508Z,1.20
2018-08-10T10:19:06.153Z,0.47
2018-08-10T10:21:33.777Z,0.70
2018-08-10T10:24:01.390Z,1.00
2018-08-10T10:26:29.063Z,0.90
2018-08-10T10:28:56.846Z,1.10
2018-08-10T10:31:24.407Z,1.47
2018-08-10T10:33:52.066Z,1.20
2018-08-10T10:36:19.671Z,1.60
2018-08-10T10:38:48.852Z,1.30
2018-08-10T10:41:16.464Z,1.33
2018-08-10T10:43:44.088Z,1.00
2018-08-10T10:46:12.434Z,0.97
2018-08-10T10:48:40.442Z,1.00
2018-08-10T10:51:09.061Z,1.90
2018-08-10T10:53:36.954Z,1.37
2018-08-10T10:56:04.857Z,1.03
2018-08-10T10:58:32.571Z,1.47
2018-08-10T11:01:00.647Z,1.00
2018-08-10T11:03:28.595Z,1.33
2018-08-10T11:05:56.562Z,0.90
2018-08-10T11:08:24.567Z,1.90
2018-08-10T11:10:52.510Z,1.37
2018-08-10T11:13:20.657Z,1.33
2018-08-10T11:15:48.336Z,1.20
2018-08-10T11:18:17.199Z,1.60
2018-08-10T11:20:45.697Z,1.67
2018-08-10T11:23:14.083Z,1.40
2018-08-10T11:25:43.498Z,1.43
2018-08-10T11:28:12.036Z,1.17
2018-08-10T11:30:40.652Z,0.90
2018-08-10T11:33:08.590Z,1.47
2018-08-10T11:35:36.523Z,2.00
2018-08-10T11:38:04.462Z,1.73
2018-08-10T11:40:33.421Z,1.80
2018-08-10T11:43:02.054Z,2.00
2018-08-10T11:45:30.011Z,1.90
2018-08-10T11:47:57.863Z,1.90
2018-08-10T11:50:25.533Z,2.00
2018-08-10T11:52:53.506Z,2.27
2018-08-10T11:55:22.329Z,1.90
2018-08-10T11:57:51.173Z,2.23
2018-08-10T12:00:19.029Z,1.80
2018-08-10T12:02:48.135Z,2.30
2018-08-10T12:05:15.789Z,1.60
2018-08-10T12:07:43.598Z,1.83
2018-08-10T12:10:12.132Z,1.30
2018-08-10T12:12:40.541Z,1.77
2018-08-10T12:15:09.324Z,1.23
2018-08-10T12:17:38.831Z,2.30
2018-08-10T12:20:06.918Z,2.17
2018-08-10T12:22:36.600Z,1.47
2018-08-10T12:25:06.493Z,1.70
2018-08-10T12:27:34.529Z,1.47
2018-08-10T12:30:03.619Z,1.60
2018-08-10T12:32:31.581Z,1.33
2018-08-10T12:35:00.080Z,1.23
2018-08-10T12:37:34.584Z,1.30
2018-08-10T12:40:02.561Z,1.20
2018-08-10T12:42:30.954Z,1.80
2018-08-10T12:44:59.472Z,1.40
2018-08-10T12:47:27.969Z,1.30
2018-08-10T12:49:55.768Z,1.67
2018-08-10T12:52:23.686Z,1.53
2018-08-10T12:54:51.565Z,1.30
2018-08-10T12:57:20.315Z,1.43
2018-08-10T12:59:48.223Z,1.93
2018-08-10T13:02:16.283Z,1.60
2018-08-10T13:04:44.289Z,1.80
2018-08-10T13:07:12.058Z,1.37
2018-08-10T13:09:40.367Z,1.40
2018-08-10T13:12:09.839Z,1.40
2018-08-10T13:14:37.571Z,1.00
2018-08-10T13:17:05.610Z,1.20
2018-08-10T13:19:34.546Z,1.40
2018-08-10T13:22:04.718Z,1.60
2018-08-10T13:24:33.138Z,1.53
2018-08-10T13:27:01.203Z,1.73
2018-08-10T13:29:29.082Z,1.20
2018-08-10T13:31:57.108Z,1.30
2018-08-10T13:34:24.974Z,1.40
2018-08-10T13:36:52.667Z,1.83
2018-08-10T13:39:21.759Z,2.00
2018-08-10T13:41:49.623Z,2.10
2018-08-10T13:44:17.493Z,2.03
2018-08-10T13:46:45.295Z,1.80
2018-08-10T13:49:13.385Z,2.90
2018-08-10T13:51:42.402Z,1.73
2018-08-10T13:54:11.052Z,2.13
2018-08-10T13:56:40.115Z,2.40
2018-08-10T13:59:08.509Z,2.30
2018-08-10T14:01:36.459Z,2.40
2018-08-10T14:04:04.505Z,2.93
2018-08-10T14:06:32.421Z,1.97
2018-08-10T14:09:02.301Z,2.20
2018-08-10T14:11:32.570Z,2.43
2018-08-10T14:14:00.967Z,1.60
2018-08-10T14:16:29.763Z,2.90
2018-08-10T14:18:58.183Z,2.57
2018-08-10T14:21:26.383Z,2.70
2018-08-10T14:23:54.746Z,2.80
2018-08-10T14:26:22.730Z,2.70
2018-08-10T14:28:50.575Z,2.30
2018-08-10T14:31:18.618Z,2.37
2018-08-10T14:33:46.723Z,2.17
2018-08-10T14:36:14.640Z,1.70
2018-08-10T14:38:42.470Z,2.20
2018-08-10T14:41:11.265Z,2.37
2018-08-10T14:43:40.251Z,1.80
2018-08-10T14:46:08.551Z,1.90
2018-08-10T14:48:36.990Z,2.00
2018-08-10T14:51:06.024Z,1.80
2018-08-10T14:53:34.243Z,2.30
2018-08-10T14:56:02.109Z,1.73
2018-08-10T14:58:30.074Z,2.07
2018-08-10T15:00:58.650Z,2.40
2018-08-10T15:03:28.413Z,2.23
2018-08-10T15:05:57.150Z,1.97
2018-08-10T15:08:25.591Z,2.70
2018-08-10T15:10:54.523Z,2.40
2018-08-10T15:13:23.158Z,3.33
2018-08-10T15:15:51.026Z,3.43
2018-08-10T15:18:19.196Z,3.33
2018-08-10T15:20:47.064Z,3.73
2018-08-10T15:23:16.902Z,3.23
2018-08-10T15:25:46.789Z,2.63
2018-08-10T15:28:14.717Z,2.90
2018-08-10T15:30:44.265Z,3.10
2018-08-10T15:33:12.750Z,3.10
2018-08-10T15:35:40.748Z,2.90
2018-08-10T15:38:08.683Z,3.27
2018-08-10T15:40:37.572Z,3.47
2018-08-10T15:43:06.398Z,4.23
2018-08-10T15:45:36.583Z,3.73
2018-08-10T15:48:04.651Z,3.60
2018-08-10T15:50:33.261Z,3.67
2018-08-10T15:53:01.148Z,3.40
2018-08-10T15:55:29.942Z,3.60
2018-08-10T15:57:58.063Z,3.90
2018-08-10T16:00:26.702Z,4.20
2018-08-10T16:02:54.535Z,3.70
2018-08-10T16:05:22.877Z,3.90
2018-08-10T16:07:50.763Z,4.57
2018-08-10T16:10:18.762Z,4.20
2018-08-10T16:12:46.786Z,4.90
2018-08-10T16:15:16.045Z,4.03
2018-08-10T16:17:44.897Z,4.47
2018-08-10T16:20:13.559Z,5.40
2018-08-10T16:22:41.344Z,4.53
2018-08-10T16:25:11.138Z,4.33
2018-08-10T16:27:39.154Z,4.50
2018-08-10T16:30:07.811Z,3.70
2018-08-10T16:32:35.677Z,4.33
2018-08-10T16:35:04.479Z,4.60
2018-08-10T16:37:32.346Z,3.93
2018-08-10T16:40:00.314Z,4.30
2018-08-10T16:42:28.352Z,4.70
2018-08-10T16:44:56.913Z,4.43
2018-08-10T16:47:24.782Z,4.03
2018-08-10T16:49:52.772Z,3.93
2018-08-10T16:52:21.084Z,3.53
2018-08-10T16:54:50.329Z,4.20
2018-08-10T16:57:18.728Z,4.00
2018-08-10T16:59:46.827Z,4.13
2018-08-10T17:02:14.783Z,4.07
2018-08-10T17:04:42.813Z,3.87
2018-08-10T17:07:18.217Z,2.80
2018-08-10T17:09:46.997Z,3.50
2018-08-10T17:12:15.228Z,4.00
2018-08-10T17:14:44.713Z,3.70
2018-08-10T17:17:14.744Z,4.27
2018-08-10T17:19:42.590Z,3.10
2018-08-10T17:22:11.472Z,2.97
2018-08-10T17:24:39.432Z,2.87
2018-08-10T17:27:08.348Z,2.53
2018-08-10T17:29:36.294Z,2.10
2018-08-10T17:32:04.523Z,3.03
2018-08-10T17:34:32.333Z,2.63
2018-08-10T17:37:06.751Z,2.13
2018-08-10T17:39:35.358Z,2.30
2018-08-10T17:42:04.223Z,2.80
2018-08-10T17:44:32.773Z,2.30
2018-08-10T17:47:01.164Z,2.10
2018-08-10T17:49:30.185Z,3.47
2018-08-10T17:51:59.223Z,2.33
2018-08-10T17:54:29.090Z,2.60
2018-08-10T17:56:57.121Z,2.60
2018-08-10T17:59:25.639Z,2.90
2018-08-10T18:01:53.763Z,2.30
2018-08-10T18:04:22.127Z,2.73
2018-08-10T18:06:50.026Z,2.23
2018-08-10T18:09:20.878Z,2.40
2018-08-10T18:11:49.351Z,2.33
2018-08-10T18:14:17.693Z,2.37
2018-08-10T18:16:45.788Z,2.40
2018-08-10T18:19:14.927Z,2.27
2018-08-10T18:21:43.381Z,2.30
2018-08-10T18:24:12.519Z,2.50
2018-08-10T18:26:41.016Z,2.10
2018-08-10T18:29:10.289Z,1.93
2018-08-10T18:31:39.538Z,2.07
2018-08-10T18:34:08.748Z,2.30
2018-08-10T18:36:38.398Z,2.23
2018-08-10T18:39:08.772Z,2.03
2018-08-10T18:41:37.428Z,2.20
2018-08-10T18:44:06.054Z,1.87
2018-08-10T18:46:33.867Z,2.47
2018-08-10T18:49:01.671Z,2.40
2018-08-10T18:51:30.295Z,2.43
2018-08-10T18:53:59.067Z,1.87
2018-08-10T18:56:27.108Z,1.80
2018-08-10T18:58:56.045Z,2.13
2018-08-10T19:01:23.993Z,1.80
2018-08-10T19:03:52.492Z,2.00
2018-08-10T19:06:20.541Z,2.07
2018-08-10T19:08:48.529Z,2.83
2018-08-10T19:11:16.467Z,1.60
2018-08-10T19:13:44.518Z,2.03
2018-08-10T19:16:12.471Z,2.57
2018-08-10T19:18:41.376Z,1.90
2018-08-10T19:21:09.190Z,1.90
2018-08-10T19:23:37.813Z,1.97
2018-08-10T19:26:05.926Z,2.80
2018-08-10T19:28:34.705Z,2.70
2018-08-10T19:31:02.711Z,2.33
2018-08-10T19:33:30.974Z,2.50
2018-08-10T19:35:59.730Z,2.23
2018-08-10T19:38:28.078Z,2.47
2018-08-10T19:40:56.377Z,2.40
2018-08-10T19:43:25.907Z,2.23
2018-08-10T19:45:53.830Z,2.40
2018-08-10T19:48:22.977Z,2.93
2018-08-10T19:50:52.494Z,2.50
2018-08-10T19:53:20.363Z,2.50
2018-08-10T19:55:51.235Z,2.90
2018-08-10T19:58:19.273Z,2.40
2018-08-10T20:00:48.955Z,3.20
2018-08-10T20:03:17.826Z,2.47
2018-08-10T20:05:45.651Z,2.57
2018-08-10T20:08:14.489Z,2.13
2018-08-10T20:10:43.086Z,2.03
2018-08-10T20:13:11.683Z,3.00
2018-08-10T20:15:40.000Z,2.57
2018-08-10T20:18:08.071Z,2.70
2018-08-10T20:20:38.129Z,2.30
2018-08-10T20:23:06.211Z,2.70
2018-08-10T20:25:34.704Z,2.70
2018-08-10T20:28:03.396Z,2.53
2018-08-10T20:30:32.583Z,2.23
2018-08-10T20:33:00.415Z,2.83
2018-08-10T20:35:29.511Z,2.60
2018-08-10T20:37:58.079Z,2.67
2018-08-10T20:40:27.151Z,2.77
2018-08-10T20:42:56.128Z,3.20
2018-08-10T20:45:24.932Z,3.03
2018-08-10T20:47:53.289Z,2.93
2018-08-10T20:50:23.318Z,2.80
2018-08-10T20:52:51.758Z,3.30
2018-08-10T20:55:23.506Z,3.23
2018-08-10T20:57:51.577Z,2.30
2018-08-10T21:00:19.564Z,3.50
2018-08-10T21:02:47.640Z,3.20
2018-08-10T21:05:17.775Z,3.90
2018-08-10T21:07:46.649Z,3.20
2018-08-10T21:10:16.278Z,4.00
2018-08-10T21:12:45.010Z,3.53
2018-08-10T21:15:14.271Z,4.37
2018-08-10T21:17:43.039Z,3.20
2018-08-10T21:20:13.818Z,3.07
2018-08-10T21:22:42.466Z,4.00
2018-08-10T21:25:12.155Z,3.03
2018-08-10T21:27:41.911Z,3.40
2018-08-10T21:30:11.130Z,3.13
2018-08-10T21:32:39.634Z,3.80
2018-08-10T21:35:08.066Z,3.20
2018-08-10T21:37:36.116Z,4.00
2018-08-10T21:40:05.040Z,3.53
2018-08-10T21:42:33.902Z,3.47
2018-08-10T21:45:02.773Z,3.27
2018-08-10T21:47:31.286Z,3.40
2018-08-10T21:49:59.619Z,3.60
2018-08-10T21:52:29.594Z,3.30
2018-08-10T21:54:57.343Z,3.20
2018-08-10T21:57:25.644Z,3.33
2018-08-10T21:59:54.045Z,3.13
2018-08-10T22:02:22.444Z,3.70
2018-08-10T22:04:50.164Z,3.80
2018-08-10T22:07:17.951Z,3.07
2018-08-10T22:09:47.373Z,3.57
2018-08-10T22:12:18.562Z,3.73
2018-08-10T22:14:51.914Z,3.20
2018-08-10T22:17:24.987Z,2.53
2018-08-10T22:19:58.410Z,3.10
2018-08-10T22:22:26.550Z,2.93
2018-08-10T22:24:55.164Z,2.93
2018-08-10T22:27:23.194Z,3.00
2018-08-10T22:29:51.127Z,2.80
2018-08-10T22:32:19.071Z,3.17
2018-08-10T22:34:47.770Z,2.83
2018-08-10T22:37:15.938Z,3.27
2018-08-10T22:39:44.345Z,2.90
2018-08-10T22:42:12.971Z,2.70
2018-08-10T22:44:40.913Z,3.00
2018-08-10T22:47:08.702Z,2.70
2018-08-10T22:49:36.560Z,2.30
2018-08-10T22:52:04.408Z,2.63
2018-08-10T22:54:32.155Z,3.70
2018-08-10T22:57:00.168Z,2.90
2018-08-10T22:59:28.117Z,2.80
2018-08-10T23:01:56.064Z,2.40
2018-08-10T23:04:24.004Z,2.60
2018-08-10T23:06:52.597Z,2.77
2018-08-10T23:09:21.682Z,2.80
2018-08-10T23:11:50.598Z,2.50
2018-08-10T23:14:19.078Z,2.40
2018-08-10T23:16:46.934Z,3.40
2018-08-10T23:19:14.702Z,3.20
2018-08-10T23:21:42.939Z,2.90
2018-08-10T23:24:11.547Z,2.90
2018-08-10T23:26:39.606Z,2.37
2018-08-10T23:29:07.588Z,3.10
2018-08-10T23:31:36.081Z,2.83
2018-08-10T23:34:03.948Z,2.67
2018-08-10T23:36:32.155Z,3.67
2018-08-10T23:39:00.664Z,3.30
2018-08-10T23:41:28.692Z,3.33
2018-08-10T23:43:56.596Z,3.30
2018-08-10T23:46:25.400Z,3.63
2018-08-10T23:48:54.462Z,4.63
2018-08-10T23:51:22.318Z,4.20
2018-08-10T23:53:50.642Z,3.60
2018-08-10T23:56:18.542Z,4.00
2018-08-10T23:58:46.574Z,4.47
